createdAt,value
2023-04-21T00:01:29.915Z,9.93
2023-04-21T00:04:33.676Z,9.87
2023-04-21T00:07:39.460Z,9.10
2023-04-21T00:10:43.210Z,9.23
2023-04-21T00:13:48.164Z,9.97
2023-04-21T00:16:52.819Z,9.63
2023-04-21T00:19:56.606Z,9.53
2023-04-21T00:23:01.023Z,10.07
2023-04-21T00:26:04.493Z,9.53
2023-04-21T00:29:09.405Z,10.97
2023-04-21T00:32:12.971Z,9.57
2023-04-21T00:35:16.463Z,9.67
2023-04-21T00:38:19.906Z,10.27
2023-04-21T00:41:23.727Z,10.50
2023-04-21T00:44:28.603Z,10.33
2023-04-21T00:47:32.427Z,10.33
2023-04-21T00:50:36.845Z,9.23
2023-04-21T00:53:41.115Z,10.57
2023-04-21T00:56:45.135Z,9.67
2023-04-21T00:59:52.017Z,10.73
2023-04-21T01:02:56.314Z,10.47
2023-04-21T01:06:00.580Z,11.47
2023-04-21T01:09:05.325Z,9.30
2023-04-21T01:12:11.197Z,9.07
2023-04-21T01:15:18.811Z,9.80
2023-04-21T01:18:22.368Z,10.47
2023-04-21T01:21:27.078Z,10.90
2023-04-21T01:24:41.055Z,9.70
2023-04-21T01:27:44.680Z,11.53
2023-04-21T01:30:48.720Z,9.37
2023-04-21T01:33:52.263Z,9.73
2023-04-21T01:36:55.902Z,10.00
2023-04-21T01:40:05.037Z,10.40
2023-04-21T01:43:09.208Z,10.33
2023-04-21T01:46:12.798Z,9.33
2023-04-21T01:49:16.392Z,10.80
2023-04-21T01:52:20.532Z,9.60
2023-04-21T01:55:26.115Z,10.30
2023-04-21T01:58:29.607Z,10.17
2023-04-21T02:01:33.165Z,10.07
2023-04-21T02:04:36.787Z,10.00
2023-04-21T02:07:40.333Z,9.93
2023-04-21T02:10:45.412Z,9.40
2023-04-21T02:13:48.923Z,9.83
2023-04-21T02:16:52.597Z,9.70
2023-04-21T02:19:56.559Z,10.00
2023-04-21T02:23:00.014Z,10.53
2023-04-21T02:26:05.011Z,10.97
2023-04-21T02:29:08.750Z,9.57
2023-04-21T02:32:22.119Z,9.30
2023-04-21T02:35:29.253Z,9.40
2023-04-21T02:38:32.813Z,9.83
2023-04-21T02:41:37.677Z,9.73
2023-04-21T02:44:42.844Z,10.30
2023-04-21T02:47:47.226Z,9.37
2023-04-21T02:50:50.844Z,9.13
2023-04-21T02:53:54.315Z,9.40
2023-04-21T02:56:59.203Z,10.00
2023-04-21T03:00:02.705Z,9.63
2023-04-21T03:03:06.714Z,9.53
2023-04-21T03:06:10.373Z,8.70
2023-04-21T03:09:13.938Z,9.67
2023-04-21T03:12:18.784Z,9.43
2023-04-21T03:15:22.717Z,8.80
2023-04-21T03:18:26.373Z,9.17
2023-04-21T03:21:29.918Z,9.07
2023-04-21T03:24:33.532Z,8.43
2023-04-21T03:27:38.454Z,9.13
2023-04-21T03:30:42.024Z,8.73
2023-04-21T03:33:45.776Z,8.97
2023-04-21T03:36:49.309Z,9.13
2023-04-21T03:39:52.810Z,9.57
2023-04-21T03:42:57.791Z,8.50
2023-04-21T03:46:01.409Z,8.50
2023-04-21T03:49:04.973Z,8.97
2023-04-21T03:52:08.482Z,8.83
2023-04-21T03:55:12.131Z,8.40
2023-04-21T03:58:17.272Z,8.80
2023-04-21T04:01:20.898Z,8.43
2023-04-21T04:04:24.646Z,7.83
2023-04-21T04:07:28.302Z,9.10
2023-04-21T04:10:31.921Z,8.90
2023-04-21T04:13:36.902Z,8.77
2023-04-21T04:16:41.524Z,8.60
2023-04-21T04:19:44.971Z,9.07
2023-04-21T04:22:48.582Z,8.87
2023-04-21T04:25:52.372Z,9.17
2023-04-21T04:28:57.338Z,8.40
2023-04-21T04:32:01.877Z,8.63
2023-04-21T04:35:06.237Z,8.60
2023-04-21T04:38:09.716Z,8.93
2023-04-21T04:41:13.392Z,9.03
2023-04-21T04:44:19.008Z,9.90
2023-04-21T04:47:22.983Z,8.20
2023-04-21T04:50:26.549Z,7.90
2023-04-21T04:53:30.193Z,8.70
2023-04-21T04:56:33.860Z,8.87
2023-04-21T04:59:39.130Z,8.47
2023-04-21T05:02:43.245Z,8.53
2023-04-21T05:05:47.230Z,8.57
2023-04-21T05:08:50.731Z,8.93
2023-04-21T05:11:54.316Z,7.83
2023-04-21T05:14:59.513Z,8.73
2023-04-21T05:18:04.103Z,8.57
2023-04-21T05:21:07.832Z,8.47
2023-04-21T05:24:11.494Z,8.13
2023-04-21T05:27:15.044Z,8.60
2023-04-21T05:30:20.091Z,8.93
2023-04-21T05:33:23.627Z,8.60
2023-04-21T05:36:27.989Z,8.13
2023-04-21T05:39:31.810Z,9.30
2023-04-21T05:42:35.354Z,8.20
2023-04-21T05:45:42.284Z,8.33
2023-04-21T05:48:45.919Z,8.63
2023-04-21T05:51:49.463Z,8.37
2023-04-21T05:54:52.983Z,8.00
2023-04-21T05:57:57.024Z,7.53
2023-04-21T06:01:02.209Z,7.80
2023-04-21T06:04:06.369Z,9.50
2023-04-21T06:07:13.609Z,8.37
2023-04-21T06:10:19.400Z,9.27
2023-04-21T06:13:22.984Z,8.57
2023-04-21T06:16:28.027Z,7.93
2023-04-21T06:19:31.665Z,7.83
2023-04-21T06:22:35.142Z,6.97
2023-04-21T06:25:39.090Z,7.87
2023-04-21T06:28:42.974Z,7.53
2023-04-21T06:31:48.051Z,7.57
2023-04-21T06:34:51.658Z,8.27
2023-04-21T06:37:55.165Z,7.83
2023-04-21T06:40:58.919Z,7.83
2023-04-21T06:44:02.452Z,7.83
2023-04-21T06:47:07.470Z,8.53
2023-04-21T06:50:12.278Z,11.17
2023-04-21T06:53:15.812Z,8.10
2023-04-21T06:56:19.307Z,7.87
2023-04-21T06:59:23.346Z,7.77
2023-04-21T07:02:28.451Z,8.07
2023-04-21T07:05:32.378Z,7.83
2023-04-21T07:08:36.023Z,9.03
2023-04-21T07:11:39.660Z,7.80
2023-04-21T07:14:43.305Z,7.63
2023-04-21T07:17:48.559Z,7.27
2023-04-21T07:20:52.392Z,7.27
2023-04-21T07:23:55.983Z,7.83
2023-04-21T07:26:59.592Z,7.67
2023-04-21T07:30:03.348Z,7.60
2023-04-21T07:33:09.052Z,8.17
2023-04-21T07:36:12.785Z,7.50
2023-04-21T07:39:16.832Z,8.13
2023-04-21T07:42:21.185Z,7.20
2023-04-21T07:45:26.664Z,7.67
2023-04-21T07:48:31.918Z,7.27
2023-04-21T07:51:35.918Z,7.87
2023-04-21T07:54:39.558Z,7.33
2023-04-21T07:57:43.251Z,7.50
2023-04-21T08:00:46.864Z,6.80
2023-04-21T08:03:52.045Z,7.30
2023-04-21T08:06:55.829Z,7.90
2023-04-21T08:10:00.291Z,7.00
2023-04-21T08:13:06.355Z,6.97
2023-04-21T08:16:10.217Z,8.20
2023-04-21T08:19:15.308Z,7.13
2023-04-21T08:22:18.903Z,7.10
2023-04-21T08:25:22.882Z,6.90
2023-04-21T08:28:26.456Z,6.90
2023-04-21T08:31:30.406Z,7.43
2023-04-21T08:34:36.092Z,7.03
2023-04-21T08:37:40.430Z,7.57
2023-04-21T08:40:44.068Z,6.57
2023-04-21T08:43:47.709Z,7.03
2023-04-21T08:46:51.845Z,6.63
2023-04-21T08:49:58.181Z,7.30
2023-04-21T08:53:01.932Z,6.53
2023-04-21T08:59:13.172Z,6.30
2023-04-21T09:02:19.035Z,7.60
2023-04-21T09:05:27.185Z,7.47
2023-04-21T09:08:31.867Z,7.13
2023-04-21T09:11:35.807Z,7.00
2023-04-21T09:14:39.277Z,6.33
2023-04-21T09:17:47.029Z,6.97
2023-04-21T09:21:05.672Z,6.53
2023-04-21T09:24:10.072Z,6.70
2023-04-21T09:27:13.946Z,5.50
2023-04-21T09:30:21.317Z,6.07
2023-04-21T09:33:32.230Z,6.00
2023-04-21T09:36:39.350Z,5.97
2023-04-21T09:40:03.622Z,5.83
2023-04-21T09:43:09.203Z,5.80
2023-04-21T09:46:13.623Z,5.77
2023-04-21T09:49:19.334Z,5.67
2023-04-21T09:52:30.051Z,5.73
2023-04-21T09:55:36.232Z,6.60
2023-04-21T09:58:47.660Z,6.03
2023-04-21T10:01:53.840Z,5.70
2023-04-21T10:04:57.614Z,5.43
2023-04-21T10:08:03.120Z,5.63
2023-04-21T10:11:08.115Z,5.40
2023-04-21T10:14:11.721Z,5.33
2023-04-21T10:17:17.961Z,5.13
2023-04-21T10:20:22.976Z,5.77
2023-04-21T10:23:34.136Z,5.90
2023-04-21T10:26:37.613Z,6.47
2023-04-21T10:29:55.490Z,5.40
2023-04-21T10:33:06.329Z,5.27
2023-04-21T10:36:15.729Z,5.60
2023-04-21T10:39:35.898Z,5.93
2023-04-21T10:42:39.427Z,5.73
2023-04-21T10:45:43.002Z,5.73
2023-04-21T10:48:54.242Z,5.60
2023-04-21T10:52:09.948Z,5.87
2023-04-21T10:55:17.157Z,5.23
2023-04-21T10:58:24.393Z,4.60
2023-04-21T11:01:28.181Z,4.63
2023-04-21T11:04:33.358Z,4.87
2023-04-21T11:07:38.553Z,5.07
2023-04-21T11:10:52.051Z,5.37
2023-04-21T11:13:55.564Z,5.50
2023-04-21T11:16:59.286Z,5.10
2023-04-21T11:20:06.958Z,5.40
2023-04-21T11:23:10.737Z,4.63
2023-04-21T11:26:15.645Z,4.80
2023-04-21T11:29:19.383Z,4.30
2023-04-21T11:32:23.102Z,5.07
2023-04-21T11:35:26.694Z,3.93
2023-04-21T11:38:38.551Z,3.67
2023-04-21T11:41:45.360Z,4.40
2023-04-21T11:44:48.848Z,4.03
2023-04-21T11:47:52.476Z,4.37
2023-04-21T11:50:55.964Z,4.63
2023-04-21T11:54:01.019Z,4.87
2023-04-21T11:57:07.004Z,4.30
2023-04-21T12:00:14.117Z,4.53
2023-04-21T12:03:17.672Z,4.70
2023-04-21T12:06:27.156Z,4.40
2023-04-21T12:09:31.744Z,4.93
2023-04-21T12:12:39.751Z,4.67
2023-04-21T12:15:46.224Z,4.37
2023-04-21T12:18:50.420Z,3.80
2023-04-21T12:21:57.666Z,3.93
2023-04-21T12:25:01.207Z,4.43
2023-04-21T12:28:10.127Z,4.00
2023-04-21T12:31:14.000Z,4.17
2023-04-21T12:34:18.183Z,4.23
2023-04-21T12:37:21.681Z,3.97
2023-04-21T12:40:25.208Z,4.03
2023-04-21T12:43:30.756Z,4.30
2023-04-21T12:46:34.319Z,4.03
2023-04-21T12:49:38.083Z,3.60
2023-04-21T12:52:41.739Z,4.00
2023-04-21T12:55:56.852Z,3.70
2023-04-21T12:59:06.169Z,3.90
2023-04-21T13:02:09.707Z,3.87
2023-04-21T13:05:13.503Z,3.80
2023-04-21T13:08:17.556Z,3.20
2023-04-21T13:11:21.091Z,3.70
2023-04-21T13:14:26.360Z,4.10
2023-04-21T13:17:30.083Z,3.43
2023-04-21T13:20:33.756Z,3.70
2023-04-21T13:23:37.250Z,4.53
2023-04-21T13:26:41.182Z,4.57
2023-04-21T13:29:47.687Z,4.07
2023-04-21T13:32:51.514Z,3.13
2023-04-21T13:35:55.036Z,3.20
2023-04-21T13:39:00.869Z,3.70
2023-04-21T13:42:04.545Z,3.37
2023-04-21T13:45:11.411Z,3.67
2023-04-21T13:48:14.960Z,3.87
2023-04-21T13:51:19.495Z,3.80
2023-04-21T13:54:22.980Z,3.00
2023-04-21T13:57:26.638Z,3.50
2023-04-21T14:00:31.461Z,3.70
2023-04-21T14:03:35.152Z,3.33
2023-04-21T14:06:38.762Z,4.07
2023-04-21T14:09:42.313Z,4.37
2023-04-21T14:12:46.115Z,3.40
2023-04-21T14:15:51.563Z,3.70
2023-04-21T14:18:55.197Z,3.97
2023-04-21T14:21:59.538Z,4.03
2023-04-21T14:25:03.994Z,4.03
2023-04-21T14:28:08.855Z,3.77
2023-04-21T14:31:13.866Z,3.67
2023-04-21T14:34:17.571Z,3.97
2023-04-21T14:37:21.413Z,4.23
2023-04-21T14:40:25.168Z,4.23
2023-04-21T14:43:28.756Z,4.23
2023-04-21T14:46:33.862Z,3.93
2023-04-21T14:49:38.187Z,4.27
2023-04-21T14:52:41.781Z,4.50
2023-04-21T14:55:45.313Z,4.17
2023-04-21T14:58:48.902Z,4.90
2023-04-21T15:01:54.185Z,4.70
2023-04-21T15:04:58.091Z,4.57
2023-04-21T15:08:01.662Z,4.87
2023-04-21T15:11:06.382Z,4.40
2023-04-21T15:14:09.960Z,4.77
2023-04-21T15:17:14.868Z,4.67
2023-04-21T15:20:20.804Z,5.50
2023-04-21T15:23:29.157Z,4.90
2023-04-21T15:26:33.018Z,5.30
2023-04-21T15:29:37.301Z,4.60
2023-04-21T15:32:42.469Z,5.10
2023-04-21T15:35:48.397Z,4.90
2023-04-21T15:38:51.871Z,5.20
2023-04-21T15:41:56.013Z,5.00
2023-04-21T15:44:59.550Z,4.97
2023-04-21T15:48:04.816Z,5.17
2023-04-21T15:51:08.545Z,5.50
2023-04-21T15:54:12.095Z,5.53
2023-04-21T15:57:16.224Z,5.60
2023-04-21T16:00:20.340Z,5.47
2023-04-21T16:03:26.290Z,5.43
2023-04-21T16:06:30.881Z,7.53
2023-04-21T16:09:34.596Z,6.17
2023-04-21T16:12:38.286Z,8.80
2023-04-21T16:15:42.271Z,5.80
2023-04-21T16:18:47.496Z,5.93
2023-04-21T16:21:51.028Z,6.03
2023-04-21T16:24:54.826Z,5.60
2023-04-21T16:27:58.485Z,5.90
2023-04-21T16:31:02.334Z,5.33
2023-04-21T16:34:07.442Z,5.30
2023-04-21T16:37:11.186Z,5.20
2023-04-21T16:40:14.969Z,4.60
2023-04-21T16:43:18.643Z,4.60
2023-04-21T16:46:22.474Z,4.80
2023-04-21T16:49:30.229Z,5.20
2023-04-21T16:52:34.194Z,5.37
2023-04-21T16:55:37.914Z,5.40
2023-04-21T16:58:41.542Z,4.93
2023-04-21T17:01:45.992Z,5.40
2023-04-21T17:04:53.871Z,5.33
2023-04-21T17:07:57.657Z,4.80
2023-04-21T17:11:01.424Z,5.10
2023-04-21T17:14:05.036Z,4.83
2023-04-21T17:17:08.926Z,6.77
2023-04-21T17:20:15.436Z,4.90
2023-04-21T17:23:19.108Z,4.47
2023-04-21T17:26:23.435Z,5.53
2023-04-21T17:29:28.221Z,4.63
2023-04-21T17:32:33.648Z,4.70
2023-04-21T17:35:43.698Z,4.43
2023-04-21T17:38:52.569Z,5.03
2023-04-21T17:41:56.205Z,5.03
2023-04-21T17:44:59.652Z,4.70
2023-04-21T17:48:03.474Z,5.50
2023-04-21T17:51:09.359Z,6.07
2023-04-21T17:54:12.978Z,5.13
2023-04-21T17:57:16.636Z,5.53
2023-04-21T18:00:22.078Z,4.63
2023-04-21T18:03:25.785Z,5.50
2023-04-21T18:06:31.936Z,4.93
2023-04-21T18:09:35.550Z,5.53
2023-04-21T18:12:39.126Z,5.90
2023-04-21T18:15:42.733Z,5.80
2023-04-21T18:18:47.608Z,5.50
2023-04-21T18:21:52.924Z,5.57
2023-04-21T18:24:56.940Z,5.33
2023-04-21T18:28:00.508Z,5.30
2023-04-21T18:31:04.684Z,5.90
2023-04-21T18:34:09.069Z,5.70
2023-04-21T18:37:14.618Z,5.60
2023-04-21T18:40:18.654Z,5.37
2023-04-21T18:43:22.633Z,6.33
2023-04-21T18:46:26.398Z,6.33
2023-04-21T18:49:30.014Z,5.87
2023-04-21T18:52:35.046Z,5.87
2023-04-21T18:55:39.142Z,5.77
2023-04-21T18:58:42.652Z,5.60
2023-04-21T19:01:46.529Z,5.60
2023-04-21T19:04:50.420Z,6.00
2023-04-21T19:07:55.677Z,5.63
2023-04-21T19:10:59.547Z,6.70
2023-04-21T19:14:03.127Z,5.90
2023-04-21T19:17:06.853Z,6.40
2023-04-21T19:20:12.421Z,6.57
2023-04-21T19:23:17.274Z,6.13
2023-04-21T19:26:21.911Z,6.80
2023-04-21T19:29:25.460Z,6.60
2023-04-21T19:32:29.359Z,6.30
2023-04-21T19:35:33.782Z,5.93
2023-04-21T19:38:38.990Z,5.90
2023-04-21T19:41:43.055Z,6.57
2023-04-21T19:44:46.621Z,6.67
2023-04-21T19:47:50.197Z,6.87
2023-04-21T19:50:53.875Z,6.47
2023-04-21T19:54:09.953Z,6.33
2023-04-21T19:57:15.252Z,5.87
2023-04-21T20:00:19.055Z,5.80
2023-04-21T20:03:22.787Z,5.73
2023-04-21T20:06:27.058Z,5.97
2023-04-21T20:09:32.204Z,6.00
2023-04-21T20:12:36.249Z,5.80
2023-04-21T20:15:40.265Z,6.30
2023-04-21T20:18:43.934Z,5.97
2023-04-21T20:21:47.618Z,6.50
2023-04-21T20:24:54.079Z,6.50
2023-04-21T20:27:58.297Z,5.97
2023-04-21T20:31:01.884Z,6.57
2023-04-21T20:34:05.602Z,5.83
2023-04-21T20:37:10.799Z,6.10
2023-04-21T20:40:15.900Z,6.27
2023-04-21T20:43:20.008Z,6.30
2023-04-21T20:46:23.806Z,6.37
2023-04-21T20:49:28.197Z,6.30
2023-04-21T20:52:31.889Z,6.30
2023-04-21T20:55:37.042Z,6.20
2023-04-21T20:58:41.471Z,6.77
2023-04-21T21:01:45.149Z,6.93
2023-04-21T21:04:48.738Z,6.30
2023-04-21T21:07:52.383Z,6.57
2023-04-21T21:10:57.353Z,6.10
2023-04-21T21:14:00.784Z,6.17
2023-04-21T21:17:04.663Z,5.77
2023-04-21T21:20:10.233Z,6.13
2023-04-21T21:23:13.904Z,6.27
2023-04-21T21:26:18.910Z,5.93
2023-04-21T21:29:22.448Z,6.47
2023-04-21T21:32:25.955Z,5.57
2023-04-21T21:35:29.665Z,5.70
2023-04-21T21:38:33.628Z,5.73
2023-04-21T21:41:38.549Z,5.10
2023-04-21T21:44:42.000Z,6.10
2023-04-21T21:47:45.970Z,5.60
2023-04-21T21:50:49.554Z,5.47
2023-04-21T21:53:53.035Z,5.13
2023-04-21T21:56:58.395Z,5.40
2023-04-21T22:00:02.290Z,5.13
2023-04-21T22:03:06.396Z,5.67
2023-04-21T22:06:10.139Z,5.20
2023-04-21T22:09:13.591Z,5.20
2023-04-21T22:12:18.511Z,5.73
2023-04-21T22:15:22.137Z,5.13
2023-04-21T22:18:25.685Z,5.67
2023-04-21T22:21:29.296Z,5.30
2023-04-21T22:24:32.792Z,5.10
2023-04-21T22:27:37.728Z,5.37
2023-04-21T22:30:41.369Z,5.10
2023-04-21T22:33:44.900Z,5.07
2023-04-21T22:36:48.530Z,5.87
2023-04-21T22:39:52.069Z,5.63
2023-04-21T22:42:57.077Z,5.20
2023-04-21T22:46:02.121Z,5.60
2023-04-21T22:49:05.808Z,5.43
2023-04-21T22:52:09.352Z,5.10
2023-04-21T22:55:12.911Z,5.00
2023-04-21T22:58:17.844Z,5.00
2023-04-21T23:01:21.498Z,5.20
2023-04-21T23:04:25.179Z,5.07
2023-04-21T23:07:28.766Z,5.27
2023-04-21T23:10:32.372Z,5.53
2023-04-21T23:13:37.351Z,5.30
2023-04-21T23:16:40.798Z,4.40
2023-04-21T23:19:44.431Z,4.73
2023-04-21T23:22:47.894Z,5.10
2023-04-21T23:25:51.435Z,5.07
2023-04-21T23:28:56.232Z,4.50
2023-04-21T23:31:59.869Z,4.77
2023-04-21T23:35:03.449Z,5.20
2023-04-21T23:38:07.023Z,4.47
2023-04-21T23:41:10.581Z,5.43
2023-04-21T23:44:15.469Z,5.30
2023-04-21T23:47:18.938Z,4.67
2023-04-21T23:50:22.540Z,4.87
2023-04-21T23:53:26.193Z,4.90
2023-04-21T23:56:30.110Z,5.37
2023-04-21T23:59:35.106Z,5.20
